createdAt,value
2022-08-07T00:00:05.769Z,2.20
2022-08-07T00:03:01.846Z,2.03
2022-08-07T00:05:32.402Z,2.05
2022-08-07T00:08:08.050Z,2.05
2022-08-07T00:10:47.925Z,1.98
2022-08-07T00:13:27.195Z,2.08
2022-08-07T00:15:57.258Z,2.45
2022-08-07T00:18:28.895Z,2.05
2022-08-07T00:21:01.363Z,2.00
2022-08-07T00:23:34.441Z,2.53
2022-08-07T00:26:18.696Z,2.10
2022-08-07T00:28:56.955Z,2.47
2022-08-07T00:31:37.313Z,2.30
2022-08-07T00:34:09.424Z,2.30
2022-08-07T00:36:43.351Z,2.25
2022-08-07T00:39:16.700Z,2.70
2022-08-07T00:42:02.470Z,2.40
2022-08-07T00:44:35.471Z,2.35
2022-08-07T00:47:15.974Z,2.42
2022-08-07T00:50:20.812Z,2.58
2022-08-07T00:52:47.719Z,2.60
2022-08-07T00:55:25.525Z,2.70
2022-08-07T00:58:08.549Z,2.75
2022-08-07T01:00:38.206Z,2.42
2022-08-07T01:03:54.653Z,2.80
2022-08-07T01:06:13.331Z,2.22
2022-08-07T01:08:51.348Z,2.40
2022-08-07T01:12:09.270Z,2.53
2022-08-07T01:14:15.632Z,2.70
2022-08-07T01:16:47.230Z,3.15
2022-08-07T01:19:20.187Z,2.80
2022-08-07T01:21:55.950Z,2.80
2022-08-07T01:24:33.472Z,2.47
2022-08-07T01:27:05.461Z,3.05
2022-08-07T01:29:50.642Z,2.50
2022-08-07T01:32:22.278Z,2.55
2022-08-07T01:34:53.489Z,2.50
2022-08-07T01:37:24.693Z,2.33
2022-08-07T01:40:00.086Z,2.30
2022-08-07T01:42:39.394Z,2.53
2022-08-07T01:45:36.977Z,2.67
2022-08-07T01:48:21.064Z,2.58
2022-08-07T01:51:24.177Z,2.38
2022-08-07T01:54:11.611Z,2.20
2022-08-07T01:56:54.329Z,2.45
2022-08-07T01:59:31.131Z,2.72
2022-08-07T02:02:10.312Z,2.45
2022-08-07T02:04:52.547Z,2.08
2022-08-07T02:07:35.819Z,2.10
2022-08-07T02:10:18.828Z,1.92
2022-08-07T02:12:50.852Z,1.98
2022-08-07T02:15:29.062Z,2.38
2022-08-07T02:18:00.722Z,2.17
2022-08-07T02:20:33.280Z,2.30
2022-08-07T02:23:07.659Z,2.10
2022-08-07T02:26:26.743Z,2.50
2022-08-07T02:28:32.472Z,2.17
2022-08-07T02:31:18.882Z,2.40
2022-08-07T02:34:02.841Z,2.40
2022-08-07T02:36:34.315Z,2.50
2022-08-07T02:39:17.451Z,2.30
2022-08-07T02:42:10.338Z,2.40
2022-08-07T02:44:48.690Z,2.30
2022-08-07T02:47:48.840Z,2.30
2022-08-07T02:50:18.459Z,2.50
2022-08-07T02:53:03.534Z,2.47
2022-08-07T02:56:03.934Z,2.45
2022-08-07T02:58:36.362Z,2.22
2022-08-07T03:01:18.919Z,2.40
2022-08-07T03:04:03.444Z,2.33
2022-08-07T03:06:39.766Z,2.20
2022-08-07T03:09:11.160Z,2.30
2022-08-07T03:11:52.536Z,2.42
2022-08-07T03:14:32.018Z,2.03
2022-08-07T03:17:03.649Z,2.55
2022-08-07T03:19:37.065Z,2.50
2022-08-07T03:22:18.703Z,2.33
2022-08-07T03:24:50.455Z,2.38
2022-08-07T03:27:30.827Z,2.50
2022-08-07T03:30:14.501Z,2.30
2022-08-07T03:32:58.280Z,2.20
2022-08-07T03:35:43.927Z,2.42
2022-08-07T03:38:21.064Z,2.30
2022-08-07T03:40:53.934Z,2.45
2022-08-07T03:43:32.256Z,2.20
2022-08-07T03:46:10.557Z,2.28
2022-08-07T03:49:02.502Z,2.25
2022-08-07T03:51:47.057Z,2.63
2022-08-07T03:54:35.159Z,2.53
2022-08-07T03:58:34.045Z,2.67
2022-08-07T04:00:03.971Z,2.85
2022-08-07T04:02:47.504Z,2.30
2022-08-07T04:05:40.901Z,2.60
2022-08-07T04:08:21.336Z,3.05
2022-08-07T04:10:54.795Z,2.65
2022-08-07T04:14:10.268Z,2.53
2022-08-07T04:16:36.292Z,2.47
2022-08-07T04:19:12.757Z,2.60
2022-08-07T04:21:58.934Z,2.25
2022-08-07T04:24:34.292Z,2.35
2022-08-07T04:27:15.255Z,2.38
2022-08-07T04:30:02.261Z,2.42
2022-08-07T04:32:47.819Z,2.50
2022-08-07T04:35:20.502Z,2.22
2022-08-07T04:38:02.893Z,2.05
2022-08-07T04:40:34.184Z,2.05
2022-08-07T04:43:04.024Z,2.03
2022-08-07T04:46:01.277Z,2.40
2022-08-07T04:48:44.615Z,2.05
2022-08-07T04:51:27.621Z,2.13
2022-08-07T04:54:06.138Z,2.03
2022-08-07T04:58:12.862Z,1.80
2022-08-07T05:00:09.889Z,1.88
2022-08-07T05:02:43.534Z,1.83
2022-08-07T05:05:52.816Z,2.05
2022-08-07T05:08:58.937Z,2.00
2022-08-07T05:11:19.105Z,2.00
2022-08-07T05:14:53.679Z,1.75
2022-08-07T05:16:47.689Z,1.80
2022-08-07T05:19:43.981Z,1.77
2022-08-07T05:22:19.044Z,1.80
2022-08-07T05:25:01.280Z,2.42
2022-08-07T05:28:03.068Z,2.08
2022-08-07T05:30:30.099Z,2.40
2022-08-07T05:33:05.254Z,1.75
2022-08-07T05:35:41.827Z,1.92
2022-08-07T05:39:01.170Z,1.63
2022-08-07T05:41:14.226Z,1.88
2022-08-07T05:44:08.399Z,1.70
2022-08-07T05:46:41.490Z,1.90
2022-08-07T05:49:14.472Z,1.50
2022-08-07T05:51:48.058Z,1.90
2022-08-07T05:54:30.861Z,1.77
2022-08-07T05:57:16.227Z,1.48
2022-08-07T05:59:57.811Z,1.60
2022-08-07T06:02:34.278Z,1.48
2022-08-07T06:05:15.643Z,1.52
2022-08-07T06:08:14.960Z,1.85
2022-08-07T06:10:42.551Z,1.60
2022-08-07T06:13:15.552Z,1.48
2022-08-07T06:15:49.924Z,1.58
2022-08-07T06:18:25.203Z,1.40
2022-08-07T06:22:11.772Z,1.50
2022-08-07T06:24:46.257Z,1.25
2022-08-07T06:26:40.007Z,1.20
2022-08-07T06:29:13.563Z,1.42
2022-08-07T06:31:49.639Z,1.38
2022-08-07T06:34:24.495Z,1.05
2022-08-07T06:36:59.428Z,0.90
2022-08-07T06:40:15.818Z,1.10
2022-08-07T06:42:34.996Z,1.10
2022-08-07T06:45:18.916Z,1.10
2022-08-07T06:47:58.466Z,1.02
2022-08-07T06:50:43.319Z,1.08
2022-08-07T06:55:28.773Z,1.00
2022-08-07T06:56:15.126Z,1.20
2022-08-07T07:00:13.058Z,1.10
2022-08-07T07:01:50.986Z,1.30
2022-08-07T07:04:27.929Z,1.23
2022-08-07T07:07:10.766Z,1.17
2022-08-07T07:09:53.322Z,1.23
2022-08-07T07:12:33.692Z,1.08
2022-08-07T07:15:08.961Z,0.82
2022-08-07T07:18:00.037Z,1.00
2022-08-07T07:20:35.706Z,0.80
2022-08-07T07:24:11.034Z,0.80
2022-08-07T07:26:34.684Z,0.88
2022-08-07T07:29:40.434Z,0.68
2022-08-07T07:31:49.396Z,0.80
2022-08-07T07:34:29.221Z,0.75
2022-08-07T07:37:14.472Z,0.60
2022-08-07T07:39:55.675Z,0.80
2022-08-07T07:42:32.858Z,0.55
2022-08-07T07:45:04.784Z,0.70
2022-08-07T07:47:43.007Z,0.80
2022-08-07T07:50:35.718Z,0.82
2022-08-07T07:53:20.756Z,0.90
2022-08-07T07:55:57.890Z,0.70
2022-08-07T07:58:40.316Z,0.77
2022-08-07T08:02:01.775Z,0.52
2022-08-07T08:04:11.127Z,0.73
2022-08-07T08:06:45.142Z,0.70
2022-08-07T08:09:23.206Z,0.80
2022-08-07T08:12:02.471Z,0.80
2022-08-07T08:14:34.159Z,0.85
2022-08-07T08:17:56.521Z,0.60
2022-08-07T08:20:18.993Z,0.88
2022-08-07T08:23:14.301Z,0.60
2022-08-07T08:26:06.991Z,0.70
2022-08-07T08:28:43.316Z,0.50
2022-08-07T08:31:30.284Z,0.70
2022-08-07T08:34:19.033Z,0.70
2022-08-07T08:36:58.854Z,1.38
2022-08-07T08:39:39.874Z,2.20
2022-08-07T08:42:27.031Z,1.00
2022-08-07T08:45:06.885Z,0.80
2022-08-07T08:47:57.299Z,1.33
2022-08-07T08:50:39.264Z,0.70
2022-08-07T08:53:19.733Z,0.60
2022-08-07T08:55:58.885Z,0.82
2022-08-07T08:58:41.617Z,0.80
2022-08-07T09:01:18.610Z,0.75
2022-08-07T09:04:00.416Z,0.68
2022-08-07T09:06:42.801Z,0.90
2022-08-07T09:09:39.080Z,0.70
2022-08-07T09:12:20.084Z,0.50
2022-08-07T09:16:24.457Z,0.65
2022-08-07T09:18:28.502Z,0.52
2022-08-07T09:21:13.906Z,0.55
2022-08-07T09:24:31.728Z,0.73
2022-08-07T09:27:09.114Z,0.68
2022-08-07T09:30:03.181Z,0.70
2022-08-07T09:33:16.275Z,0.90
2022-08-07T09:36:05.062Z,0.63
2022-08-07T09:38:50.138Z,0.55
2022-08-07T09:41:36.406Z,0.68
2022-08-07T09:44:33.040Z,0.65
2022-08-07T09:47:56.240Z,0.80
2022-08-07T09:50:31.197Z,0.80
2022-08-07T09:53:04.031Z,0.80
2022-08-07T09:56:04.112Z,0.68
2022-08-07T09:58:58.861Z,1.10
2022-08-07T10:01:51.276Z,0.60
2022-08-07T10:05:12.737Z,0.52
2022-08-07T10:08:01.031Z,0.60
2022-08-07T10:11:16.302Z,0.60
2022-08-07T10:13:54.845Z,0.60
2022-08-07T10:16:43.244Z,0.65
2022-08-07T10:19:50.143Z,0.82
2022-08-07T10:22:39.611Z,0.55
2022-08-07T10:25:42.771Z,0.52
2022-08-07T10:31:49.584Z,0.60
2022-08-07T10:34:32.618Z,0.68
2022-08-07T10:37:15.300Z,0.65
2022-08-07T10:40:06.181Z,0.73
2022-08-07T10:42:42.308Z,0.68
2022-08-07T10:45:44.389Z,0.88
2022-08-07T10:48:36.245Z,0.60
2022-08-07T10:51:16.675Z,0.80
2022-08-07T10:54:11.818Z,0.60
2022-08-07T10:56:55.430Z,0.60
2022-08-07T10:59:37.449Z,0.70
2022-08-07T11:02:32.909Z,0.82
2022-08-07T11:05:15.067Z,0.75
2022-08-07T11:07:59.366Z,0.77
2022-08-07T11:10:43.811Z,0.65
2022-08-07T11:14:43.717Z,0.80
2022-08-07T11:16:21.904Z,0.77
2022-08-07T11:19:06.989Z,0.77
2022-08-07T11:21:43.889Z,0.90
2022-08-07T11:24:23.211Z,0.77
2022-08-07T11:27:00.470Z,1.13
2022-08-07T11:29:42.229Z,0.90
2022-08-07T11:32:25.951Z,0.80
2022-08-07T11:34:59.751Z,1.00
2022-08-07T11:37:58.164Z,0.95
2022-08-07T11:40:50.590Z,1.25
2022-08-07T11:43:41.473Z,0.85
2022-08-07T11:46:36.711Z,0.90
2022-08-07T11:50:18.827Z,1.00
2022-08-07T11:52:46.988Z,0.85
2022-08-07T11:56:26.004Z,0.80
2022-08-07T11:58:33.377Z,0.95
2022-08-07T12:01:20.230Z,0.75
2022-08-07T12:04:24.773Z,1.00
2022-08-07T12:07:07.991Z,0.70
2022-08-07T12:09:55.793Z,0.90
2022-08-07T12:12:29.836Z,0.77
2022-08-07T12:15:03.723Z,0.90
2022-08-07T12:17:59.280Z,0.90
2022-08-07T12:20:37.056Z,0.85
2022-08-07T12:23:21.556Z,1.00
2022-08-07T12:26:28.987Z,1.23
2022-08-07T12:29:08.576Z,0.80
2022-08-07T12:32:01.509Z,1.17
2022-08-07T12:34:37.126Z,0.80
2022-08-07T12:37:22.921Z,0.80
2022-08-07T12:39:57.315Z,0.93
2022-08-07T12:42:32.078Z,0.65
2022-08-07T12:45:07.550Z,0.90
2022-08-07T12:47:50.811Z,0.90
2022-08-07T12:50:39.509Z,0.88
2022-08-07T12:53:27.638Z,0.88
2022-08-07T12:56:04.227Z,0.90
2022-08-07T12:58:43.988Z,1.00
2022-08-07T13:01:32.386Z,0.90
2022-08-07T13:04:49.138Z,0.80
2022-08-07T13:08:13.771Z,1.20
2022-08-07T13:11:01.448Z,1.00
2022-08-07T13:13:53.814Z,0.65
2022-08-07T13:16:43.599Z,0.80
2022-08-07T13:19:46.153Z,0.70
2022-08-07T13:22:36.036Z,0.98
2022-08-07T13:25:31.777Z,0.70
2022-08-07T13:28:14.219Z,0.87
2022-08-07T13:31:06.422Z,0.77
2022-08-07T13:34:32.787Z,0.70
2022-08-07T13:37:04.294Z,0.95
2022-08-07T13:40:36.339Z,0.80
2022-08-07T13:43:17.870Z,0.85
2022-08-07T13:46:11.254Z,0.75
2022-08-07T13:48:58.628Z,0.60
2022-08-07T13:52:05.440Z,0.90
2022-08-07T13:54:28.850Z,0.75
2022-08-07T13:57:08.595Z,0.75
2022-08-07T13:59:45.552Z,0.70
2022-08-07T14:02:29.743Z,0.57
2022-08-07T14:05:07.026Z,0.82
2022-08-07T14:08:00.902Z,0.80
2022-08-07T14:10:42.058Z,0.80
2022-08-07T14:13:17.867Z,0.80
2022-08-07T14:15:57.025Z,0.70
2022-08-07T14:18:33.189Z,0.82
2022-08-07T14:21:20.737Z,0.80
2022-08-07T14:24:03.794Z,0.90
2022-08-07T14:26:40.528Z,0.60
2022-08-07T14:30:02.829Z,0.80
2022-08-07T14:32:19.922Z,0.98
2022-08-07T14:34:52.547Z,0.82
2022-08-07T14:37:36.206Z,0.70
2022-08-07T14:40:27.108Z,1.00
2022-08-07T14:43:58.071Z,0.63
2022-08-07T14:45:54.669Z,0.80
2022-08-07T14:48:36.988Z,0.80
2022-08-07T14:51:15.577Z,1.00
2022-08-07T14:54:09.791Z,0.80
2022-08-07T14:56:43.613Z,0.73
2022-08-07T15:02:31.917Z,0.70
2022-08-07T15:05:20.175Z,0.90
2022-08-07T15:07:55.076Z,1.13
2022-08-07T15:13:22.473Z,0.93
2022-08-07T15:16:04.664Z,1.15
2022-08-07T15:18:45.307Z,0.70
2022-08-07T15:21:44.268Z,0.70
2022-08-07T15:25:15.718Z,0.93
2022-08-07T15:27:11.301Z,0.88
2022-08-07T15:36:01.228Z,0.98
2022-08-07T15:38:29.904Z,1.17
2022-08-07T15:44:02.672Z,1.10
2022-08-07T15:50:04.422Z,0.90
2022-08-07T15:52:30.069Z,1.80
2022-08-07T15:55:08.864Z,0.90
2022-08-07T15:57:47.772Z,1.08
2022-08-07T16:00:31.825Z,2.40
2022-08-07T16:03:20.534Z,1.50
2022-08-07T16:05:53.336Z,2.13
2022-08-07T16:08:31.978Z,0.90
2022-08-07T16:11:28.643Z,1.00
2022-08-07T16:16:57.542Z,0.90
2022-08-07T16:20:01.128Z,1.10
2022-08-07T16:22:55.218Z,1.30
2022-08-07T16:25:54.380Z,1.42
2022-08-07T16:30:07.484Z,1.17
2022-08-07T16:31:57.742Z,1.70
2022-08-07T16:34:48.588Z,2.35
2022-08-07T16:38:04.709Z,1.83
2022-08-07T16:41:02.679Z,1.40
2022-08-07T16:44:31.722Z,1.40
2022-08-07T16:47:45.390Z,1.25
2022-08-07T16:50:48.210Z,1.35
2022-08-07T16:54:06.630Z,1.35
2022-08-07T16:56:56.782Z,1.13
2022-08-07T16:59:47.091Z,1.20
2022-08-07T17:02:52.249Z,1.10
2022-08-07T17:06:28.566Z,1.05
2022-08-07T17:09:08.737Z,1.00
2022-08-07T17:12:04.914Z,1.27
2022-08-07T17:14:44.870Z,1.33
2022-08-07T17:17:44.068Z,1.20
2022-08-07T17:20:29.727Z,1.10
2022-08-07T17:23:08.753Z,1.02
2022-08-07T17:25:54.905Z,1.10
2022-08-07T17:28:34.457Z,1.15
2022-08-07T17:31:15.985Z,1.00
2022-08-07T17:34:15.377Z,1.00
2022-08-07T17:36:59.908Z,1.40
2022-08-07T17:39:57.654Z,0.98
2022-08-07T17:45:34.894Z,1.10
2022-08-07T17:48:12.815Z,1.20
2022-08-07T17:50:54.247Z,1.10
2022-08-07T17:54:01.436Z,2.20
2022-08-07T17:56:29.875Z,1.23
2022-08-07T17:59:10.762Z,1.30
2022-08-07T18:01:51.546Z,1.10
2022-08-07T18:04:35.079Z,1.10
2022-08-07T18:07:28.543Z,1.35
2022-08-07T18:10:32.126Z,1.30
2022-08-07T18:13:28.152Z,1.33
2022-08-07T18:16:30.792Z,1.60
2022-08-07T18:21:09.846Z,1.30
2022-08-07T18:22:27.137Z,1.30
2022-08-07T18:25:19.088Z,1.33
2022-08-07T18:28:36.016Z,1.30
2022-08-07T18:31:14.123Z,1.38
2022-08-07T18:34:34.838Z,1.40
2022-08-07T18:38:56.987Z,1.52
2022-08-07T18:40:56.175Z,1.40
2022-08-07T18:43:49.583Z,1.65
2022-08-07T18:46:29.683Z,1.70
2022-08-07T18:50:19.686Z,3.35
2022-08-07T18:52:40.996Z,2.58
2022-08-07T18:55:40.761Z,2.10
2022-08-07T18:58:40.383Z,2.00
2022-08-07T19:02:18.036Z,2.10
2022-08-07T19:04:39.666Z,1.73
2022-08-07T19:07:34.934Z,2.03
2022-08-07T19:10:18.525Z,2.28
2022-08-07T19:13:10.185Z,2.10
2022-08-07T19:17:01.106Z,1.77
2022-08-07T19:19:17.740Z,2.40
2022-08-07T19:22:11.320Z,1.98
2022-08-07T19:24:49.883Z,2.15
2022-08-07T19:29:02.924Z,2.20
2022-08-07T19:30:58.757Z,2.17
2022-08-07T19:33:13.190Z,2.38
2022-08-07T19:35:56.584Z,2.30
2022-08-07T19:38:33.177Z,2.33
2022-08-07T19:41:12.578Z,2.67
2022-08-07T19:44:04.250Z,2.60
2022-08-07T19:46:57.716Z,3.50
2022-08-07T19:49:56.751Z,3.83
2022-08-07T19:52:28.672Z,3.70
2022-08-07T19:54:59.847Z,4.47
2022-08-07T19:58:01.975Z,4.15
2022-08-07T20:00:29.855Z,4.45
2022-08-07T20:03:04.870Z,5.22
2022-08-07T20:06:02.215Z,4.30
2022-08-07T20:08:34.509Z,4.10
2022-08-07T20:11:10.193Z,3.65
2022-08-07T20:13:44.582Z,3.65
2022-08-07T20:16:31.970Z,3.60
2022-08-07T20:19:09.940Z,3.08
2022-08-07T20:21:47.295Z,3.92
2022-08-07T20:24:22.039Z,4.53
2022-08-07T20:26:54.839Z,5.03
2022-08-07T20:29:48.240Z,4.85
2022-08-07T20:32:25.535Z,4.88
2022-08-07T20:34:58.628Z,4.50
2022-08-07T20:37:33.968Z,4.15
2022-08-07T20:40:32.407Z,4.00
2022-08-07T20:42:59.498Z,4.10
2022-08-07T20:46:27.696Z,3.85
2022-08-07T20:48:29.993Z,4.10
2022-08-07T20:51:02.298Z,4.30
2022-08-07T20:54:03.880Z,4.18
2022-08-07T20:56:30.259Z,4.53
2022-08-07T20:59:05.316Z,4.40
2022-08-07T21:01:45.866Z,4.03
2022-08-07T21:04:30.015Z,4.00
2022-08-07T21:07:14.509Z,3.83
2022-08-07T21:09:52.920Z,4.32
2022-08-07T21:12:34.882Z,3.63
2022-08-07T21:15:09.277Z,4.20
2022-08-07T21:18:02.190Z,4.18
2022-08-07T21:20:36.416Z,3.78
2022-08-07T21:23:15.444Z,3.97
2022-08-07T21:26:04.909Z,3.67
2022-08-07T21:28:48.981Z,3.78
2022-08-07T21:32:42.938Z,3.72
2022-08-07T21:34:35.165Z,4.03
2022-08-07T21:37:26.506Z,4.10
2022-08-07T21:43:00.674Z,3.83
2022-08-07T21:46:04.707Z,3.80
2022-08-07T21:48:33.520Z,3.90
2022-08-07T21:51:20.102Z,3.90
2022-08-07T21:53:59.953Z,3.85
2022-08-07T21:56:47.134Z,3.72
2022-08-07T22:00:02.741Z,4.10
2022-08-07T22:02:35.151Z,3.80
2022-08-07T22:05:07.318Z,4.03
2022-08-07T22:07:59.004Z,5.05
2022-08-07T22:10:33.751Z,5.35
2022-08-07T22:13:09.294Z,5.32
2022-08-07T22:16:38.800Z,5.55
2022-08-07T22:18:43.244Z,5.00
2022-08-07T22:21:19.195Z,4.82
2022-08-07T22:23:58.167Z,4.55
2022-08-07T22:26:44.187Z,4.03
2022-08-07T22:29:34.027Z,4.00
2022-08-07T22:32:20.138Z,3.88
2022-08-07T22:34:55.486Z,3.60
2022-08-07T22:38:04.460Z,4.22
2022-08-07T22:40:30.829Z,3.47
2022-08-07T22:43:08.282Z,3.80
2022-08-07T22:46:21.341Z,4.07
2022-08-07T22:49:01.444Z,3.88
2022-08-07T22:52:19.635Z,4.00
2022-08-07T22:55:30.365Z,3.53
2022-08-07T22:58:16.751Z,3.63
2022-08-07T23:00:59.148Z,3.78
2022-08-07T23:03:57.994Z,3.80
2022-08-07T23:06:54.919Z,3.67
2022-08-07T23:10:03.811Z,3.15
2022-08-07T23:12:38.363Z,3.25
2022-08-07T23:15:22.104Z,3.40
2022-08-07T23:18:18.376Z,3.25
2022-08-07T23:21:09.492Z,3.30
2022-08-07T23:24:05.740Z,3.58
2022-08-07T23:26:54.903Z,3.13
2022-08-07T23:30:38.708Z,3.53
2022-08-07T23:34:35.190Z,3.17
2022-08-07T23:36:03.987Z,3.13
2022-08-07T23:41:33.883Z,3.08
2022-08-07T23:44:35.766Z,2.63
2022-08-07T23:47:24.052Z,2.90
2022-08-07T23:50:22.865Z,2.95
2022-08-07T23:53:08.447Z,2.90
2022-08-07T23:55:57.980Z,2.65
2022-08-07T23:58:38.995Z,2.83
